createdAt,value
2023-05-11T00:02:51.052Z,15.02
2023-05-11T00:07:10.310Z,17.00
2023-05-11T00:11:28.264Z,16.13
2023-05-11T00:15:46.778Z,14.63
2023-05-11T00:20:08.079Z,15.43
2023-05-11T00:24:25.469Z,14.30
2023-05-11T00:28:43.601Z,15.35
2023-05-11T00:33:03.224Z,15.65
2023-05-11T00:37:25.864Z,14.57
2023-05-11T00:41:43.750Z,15.85
2023-05-11T00:46:02.251Z,16.60
2023-05-11T00:50:20.303Z,17.60
2023-05-11T00:54:40.742Z,17.40
2023-05-11T00:58:59.235Z,18.25
2023-05-11T01:03:17.750Z,16.30
2023-05-11T01:07:42.781Z,16.33
2023-05-11T01:12:12.310Z,16.83
2023-05-11T01:16:33.777Z,14.48
2023-05-11T01:21:01.102Z,16.13
2023-05-11T01:25:36.880Z,17.45
2023-05-11T01:30:34.952Z,16.95
2023-05-11T01:34:59.026Z,14.37
2023-05-11T01:39:21.650Z,15.00
2023-05-11T01:43:42.235Z,15.63
2023-05-11T01:48:05.513Z,16.90
2023-05-11T01:52:26.079Z,18.53
2023-05-11T01:56:45.874Z,16.13
2023-05-11T02:01:06.852Z,16.52
2023-05-11T02:05:30.404Z,16.97
2023-05-11T02:09:52.726Z,15.25
2023-05-11T02:14:14.016Z,17.65
2023-05-11T02:18:34.236Z,16.13
2023-05-11T02:22:57.124Z,16.95
2023-05-11T02:27:15.554Z,17.05
2023-05-11T02:31:39.537Z,15.18
2023-05-11T02:35:59.128Z,17.43
2023-05-11T02:40:29.902Z,16.88
2023-05-11T02:44:59.557Z,18.23
2023-05-11T02:49:23.909Z,15.40
2023-05-11T02:53:45.630Z,18.30
2023-05-11T02:58:06.840Z,17.08
2023-05-11T03:02:26.531Z,17.00
2023-05-11T03:06:44.653Z,18.73
2023-05-11T03:11:04.038Z,16.60
2023-05-11T03:15:25.296Z,20.15
2023-05-11T03:19:48.242Z,20.43
2023-05-11T03:24:13.128Z,18.95
2023-05-11T03:28:33.686Z,20.85
2023-05-11T03:32:58.767Z,18.97
2023-05-11T03:37:20.537Z,18.58
2023-05-11T03:41:42.365Z,22.17
2023-05-11T03:46:04.595Z,20.13
2023-05-11T03:50:27.090Z,19.33
2023-05-11T03:54:46.272Z,18.77
2023-05-11T03:59:04.371Z,18.50
2023-05-11T04:03:21.818Z,18.57
2023-05-11T04:07:41.354Z,18.67
2023-05-11T04:12:03.854Z,19.17
2023-05-11T04:16:23.224Z,20.57
2023-05-11T04:20:43.284Z,18.85
2023-05-11T04:25:03.032Z,19.92
2023-05-11T04:29:22.540Z,20.57
2023-05-11T04:33:43.568Z,21.30
2023-05-11T04:38:01.527Z,20.55
2023-05-11T04:42:21.016Z,23.00
2023-05-11T04:46:43.933Z,20.50
2023-05-11T04:51:05.349Z,20.95
2023-05-11T04:55:26.087Z,24.15
2023-05-11T04:59:48.672Z,18.73
2023-05-11T05:04:08.879Z,17.60
2023-05-11T05:08:26.797Z,17.92
2023-05-11T05:12:44.699Z,19.87
2023-05-11T05:17:03.786Z,18.17
2023-05-11T05:21:23.515Z,17.05
2023-05-11T05:25:41.719Z,14.95
2023-05-11T05:29:59.668Z,14.50
2023-05-11T05:34:19.111Z,13.77
2023-05-11T05:38:38.923Z,12.70
2023-05-11T05:42:57.182Z,13.77
2023-05-11T05:47:18.337Z,13.48
2023-05-11T05:51:37.496Z,14.63
2023-05-11T05:55:57.637Z,13.07
2023-05-11T06:00:16.470Z,13.57
2023-05-11T06:04:39.935Z,11.40
2023-05-11T06:08:58.896Z,10.75
2023-05-11T06:13:18.817Z,10.97
2023-05-11T06:17:36.730Z,10.20
2023-05-11T06:21:54.764Z,10.55
2023-05-11T06:26:14.463Z,10.93
2023-05-11T06:30:34.583Z,9.98
2023-05-11T06:34:55.357Z,10.77
2023-05-11T06:39:16.427Z,10.30
2023-05-11T06:43:35.635Z,9.13
2023-05-11T06:47:55.635Z,8.95
2023-05-11T06:52:13.702Z,8.50
2023-05-11T06:56:32.078Z,9.67
2023-05-11T07:00:51.600Z,9.32
2023-05-11T07:05:12.291Z,9.82
2023-05-11T07:09:32.291Z,8.77
2023-05-11T07:13:49.853Z,9.77
2023-05-11T07:18:09.497Z,11.05
2023-05-11T07:22:28.934Z,11.03
2023-05-11T07:26:47.462Z,9.82
2023-05-11T07:31:05.776Z,10.90
2023-05-11T07:35:25.389Z,9.15
2023-05-11T07:39:44.548Z,9.77
2023-05-11T07:44:02.799Z,9.20
2023-05-11T07:48:20.928Z,11.52
2023-05-11T07:52:39.927Z,9.73
2023-05-11T07:56:59.554Z,9.00
2023-05-11T08:01:17.772Z,8.45
2023-05-11T08:05:37.926Z,9.03
2023-05-11T08:09:58.371Z,8.98
2023-05-11T08:14:18.245Z,10.07
2023-05-11T08:18:36.587Z,8.80
2023-05-11T08:22:54.721Z,8.07
2023-05-11T08:27:15.320Z,9.38
2023-05-11T08:31:33.377Z,10.68
2023-05-11T08:35:51.690Z,9.60
2023-05-11T08:40:14.633Z,9.95
2023-05-11T08:44:37.987Z,9.45
2023-05-11T08:48:58.150Z,8.90
2023-05-11T08:53:16.374Z,10.23
2023-05-11T08:57:57.609Z,9.60
2023-05-11T09:02:38.913Z,7.97
2023-05-11T09:07:18.301Z,11.77
2023-05-11T09:11:56.267Z,7.82
2023-05-11T09:16:37.674Z,8.48
2023-05-11T09:21:16.724Z,8.63
2023-05-11T09:25:54.928Z,8.15
2023-05-11T09:30:35.512Z,6.53
2023-05-11T09:35:21.769Z,7.67
2023-05-11T09:40:26.355Z,8.13
2023-05-11T09:45:00.689Z,7.63
2023-05-11T09:49:43.202Z,7.88
2023-05-11T09:54:23.364Z,7.03
2023-05-11T09:59:04.201Z,7.18
2023-05-11T10:03:48.966Z,7.63
2023-05-11T10:08:30.384Z,6.57
2023-05-11T10:13:10.459Z,6.63
2023-05-11T10:17:51.557Z,6.78
2023-05-11T10:22:30.790Z,5.87
2023-05-11T10:27:09.738Z,6.88
2023-05-11T10:31:51.622Z,6.93
2023-05-11T10:36:33.296Z,7.95
2023-05-11T10:41:26.756Z,8.30
2023-05-11T10:46:18.789Z,8.20
2023-05-11T10:51:20.927Z,7.63
2023-05-11T10:56:21.386Z,7.93
2023-05-11T11:01:27.901Z,8.07
2023-05-11T11:06:07.447Z,7.00
2023-05-11T11:10:46.867Z,7.27
2023-05-11T11:15:47.928Z,7.07
2023-05-11T11:20:49.078Z,6.60
2023-05-11T11:25:52.830Z,7.80
2023-05-11T11:30:33.996Z,6.73
2023-05-11T11:35:45.959Z,6.25
2023-05-11T11:40:47.167Z,7.90
2023-05-11T11:45:32.353Z,6.70
2023-05-11T11:50:14.356Z,6.80
2023-05-11T11:54:56.017Z,10.10
2023-05-11T11:59:48.365Z,7.23
2023-05-11T12:04:46.255Z,6.85
2023-05-11T12:09:26.168Z,9.32
2023-05-11T12:14:05.248Z,8.52
2023-05-11T12:18:52.098Z,7.13
2023-05-11T12:23:32.360Z,6.68
2023-05-11T12:28:12.930Z,6.35
2023-05-11T12:32:56.664Z,6.63
2023-05-11T12:37:37.337Z,7.50
2023-05-11T12:42:20.140Z,7.32
2023-05-11T12:47:00.503Z,6.73
2023-05-11T12:52:02.292Z,6.57
2023-05-11T12:56:49.820Z,6.93
2023-05-11T13:01:29.184Z,6.78
2023-05-11T13:06:10.623Z,7.90
2023-05-11T13:10:50.561Z,7.15
2023-05-11T13:15:30.897Z,7.30
2023-05-11T13:20:20.789Z,8.90
2023-05-11T13:25:06.629Z,6.70
2023-05-11T13:29:44.141Z,8.30
2023-05-11T13:34:25.151Z,7.43
2023-05-11T13:39:03.347Z,7.82
2023-05-11T13:43:47.540Z,6.78
2023-05-11T13:48:25.765Z,6.05
2023-05-11T13:53:05.449Z,6.23
2023-05-11T13:57:44.588Z,5.90
2023-05-11T14:02:25.532Z,9.73
2023-05-11T14:07:03.823Z,5.83
2023-05-11T14:11:43.612Z,6.15
2023-05-11T14:16:25.766Z,6.20
2023-05-11T14:21:08.971Z,6.07
2023-05-11T14:25:48.306Z,7.75
2023-05-11T14:30:27.704Z,7.68
2023-05-11T14:35:07.887Z,6.07
2023-05-11T14:39:48.336Z,9.23
2023-05-11T14:44:26.349Z,5.68
2023-05-11T14:49:06.368Z,6.88
2023-05-11T14:53:45.491Z,7.33
2023-05-11T14:58:26.318Z,5.53
2023-05-11T15:03:04.893Z,6.53
2023-05-11T15:07:44.305Z,7.23
2023-05-11T15:12:24.045Z,6.47
2023-05-11T15:17:04.848Z,5.32
2023-05-11T15:21:43.373Z,5.38
2023-05-11T15:26:25.976Z,7.27
2023-05-11T15:31:05.252Z,6.40
2023-05-11T15:35:46.533Z,6.20
2023-05-11T15:40:24.388Z,4.77
2023-05-11T15:45:03.964Z,5.68
2023-05-11T15:49:43.310Z,5.72
2023-05-11T15:54:24.182Z,5.80
2023-05-11T15:59:02.479Z,6.47
2023-05-11T16:03:41.901Z,12.60
2023-05-11T16:08:24.942Z,7.18
2023-05-11T16:13:05.744Z,5.60
2023-05-11T16:17:44.933Z,5.78
2023-05-11T16:22:23.437Z,6.00
2023-05-11T16:27:02.974Z,6.10
2023-05-11T16:31:43.794Z,6.30
2023-05-11T16:36:22.172Z,6.70
2023-05-11T16:41:01.894Z,8.90
2023-05-11T16:45:41.485Z,5.53
2023-05-11T16:50:22.414Z,4.80
2023-05-11T16:55:01.433Z,6.97
2023-05-11T16:59:39.721Z,6.10
2023-05-11T17:04:19.509Z,5.13
2023-05-11T17:09:00.325Z,7.35
2023-05-11T17:13:38.528Z,5.60
2023-05-11T17:18:17.945Z,5.50
2023-05-11T17:22:58.062Z,4.97
2023-05-11T17:27:38.707Z,5.80
2023-05-11T17:32:17.261Z,5.38
2023-05-11T17:36:56.690Z,5.30
2023-05-11T17:41:35.800Z,6.35
2023-05-11T17:46:16.711Z,6.60
2023-05-11T17:50:55.112Z,4.72
2023-05-11T17:55:34.871Z,4.90
2023-05-11T18:00:15.364Z,5.57
2023-05-11T18:04:55.190Z,4.90
2023-05-11T18:09:33.223Z,6.35
2023-05-11T18:14:12.935Z,8.37
2023-05-11T18:18:52.446Z,6.80
2023-05-11T18:23:33.316Z,5.70
2023-05-11T18:28:11.598Z,5.30
2023-05-11T18:32:51.117Z,5.90
2023-05-11T18:37:30.593Z,5.03
2023-05-11T18:42:11.568Z,5.72
2023-05-11T18:46:49.478Z,6.30
2023-05-11T18:51:29.378Z,6.00
2023-05-11T18:56:11.101Z,6.40
2023-05-11T19:00:53.117Z,6.97
2023-05-11T19:05:30.834Z,5.72
2023-05-11T19:10:10.944Z,5.80
2023-05-11T19:14:50.142Z,6.38
2023-05-11T19:19:30.936Z,5.63
2023-05-11T19:24:09.852Z,6.10
2023-05-11T19:28:48.689Z,5.60
2023-05-11T19:33:28.238Z,5.47
2023-05-11T19:38:09.209Z,5.82
2023-05-11T19:42:47.299Z,7.22
2023-05-11T19:47:26.944Z,5.53
2023-05-11T19:52:07.111Z,6.10
2023-05-11T19:56:47.778Z,6.07
2023-05-11T20:01:25.655Z,6.32
2023-05-11T20:06:05.655Z,5.70
2023-05-11T20:10:44.785Z,5.07
2023-05-11T20:15:26.520Z,5.65
2023-05-11T20:20:08.648Z,5.80
2023-05-11T20:24:46.369Z,6.00
2023-05-11T20:29:26.264Z,5.25
2023-05-11T20:34:07.660Z,5.63
2023-05-11T20:38:45.245Z,6.10
2023-05-11T20:43:26.021Z,7.20
2023-05-11T20:48:04.340Z,6.40
2023-05-11T20:52:45.241Z,7.43
2023-05-11T20:57:23.665Z,6.30
2023-05-11T21:02:03.289Z,7.00
2023-05-11T21:06:42.621Z,6.13
2023-05-11T21:11:23.415Z,6.30
2023-05-11T21:16:01.711Z,5.90
2023-05-11T21:20:20.236Z,6.43
2023-05-11T21:24:38.618Z,6.25
2023-05-11T21:28:58.327Z,6.00
2023-05-11T21:33:17.017Z,5.80
2023-05-11T21:37:35.797Z,6.67
2023-05-11T21:41:53.146Z,5.55
2023-05-11T21:46:13.133Z,6.72
2023-05-11T21:50:32.689Z,6.77
2023-05-11T21:54:50.410Z,5.93
2023-05-11T21:59:08.953Z,6.53
2023-05-11T22:03:30.171Z,6.47
2023-05-11T22:07:47.769Z,6.82
2023-05-11T22:12:06.336Z,6.47
2023-05-11T22:16:23.702Z,6.28
2023-05-11T22:20:45.165Z,7.90
2023-05-11T22:25:03.314Z,7.63
2023-05-11T22:29:21.478Z,7.40
2023-05-11T22:33:39.117Z,7.23
2023-05-11T22:37:58.513Z,6.93
2023-05-11T22:42:18.179Z,6.20
2023-05-11T22:46:36.293Z,6.67
2023-05-11T22:50:55.129Z,7.40
2023-05-11T22:55:13.823Z,6.75
2023-05-11T22:59:34.777Z,9.50
2023-05-11T23:03:55.141Z,6.87
2023-05-11T23:08:12.997Z,6.85
2023-05-11T23:12:32.358Z,7.25
2023-05-11T23:16:51.972Z,6.70
2023-05-11T23:21:10.332Z,6.43
2023-05-11T23:25:28.086Z,6.70
2023-05-11T23:29:49.018Z,6.83
2023-05-11T23:34:07.959Z,6.65
2023-05-11T23:38:26.918Z,6.07
2023-05-11T23:42:46.579Z,7.85
2023-05-11T23:47:06.748Z,7.37
2023-05-11T23:51:25.925Z,6.13
2023-05-11T23:55:43.680Z,6.25
